createdAt,value
2023-01-09T00:01:16.803Z,86.92
2023-01-09T00:03:44.543Z,87.28
2023-01-09T00:06:12.848Z,87.19
2023-01-09T00:08:40.557Z,87.08
2023-01-09T00:11:09.038Z,87.20
2023-01-09T00:13:37.390Z,87.43
2023-01-09T00:16:07.424Z,87.64
2023-01-09T00:18:35.651Z,87.63
2023-01-09T00:21:04.706Z,87.58
2023-01-09T00:23:32.370Z,87.84
2023-01-09T00:26:05.514Z,87.34
2023-01-09T00:28:33.834Z,87.27
2023-01-09T00:31:03.380Z,87.71
2023-01-09T00:33:34.725Z,87.40
2023-01-09T00:36:03.267Z,87.88
2023-01-09T00:38:31.120Z,87.43
2023-01-09T00:41:00.203Z,87.97
2023-01-09T00:43:31.650Z,87.69
2023-01-09T00:46:01.056Z,88.10
2023-01-09T00:48:30.224Z,88.15
2023-01-09T00:51:00.669Z,88.28
2023-01-09T00:53:32.670Z,87.83
2023-01-09T00:56:06.323Z,87.58
2023-01-09T00:58:36.170Z,88.06
2023-01-09T01:01:04.323Z,88.01
2023-01-09T01:03:33.031Z,87.80
2023-01-09T01:06:19.812Z,87.55
2023-01-09T01:08:47.665Z,87.47
2023-01-09T01:11:15.773Z,87.33
2023-01-09T01:13:44.243Z,87.59
2023-01-09T01:16:13.852Z,87.72
2023-01-09T01:18:42.963Z,87.29
2023-01-09T01:21:13.985Z,87.43
2023-01-09T01:23:42.614Z,87.24
2023-01-09T01:26:12.153Z,87.14
2023-01-09T01:28:40.421Z,87.21
2023-01-09T01:31:08.262Z,86.93
2023-01-09T01:33:36.478Z,87.25
2023-01-09T01:36:07.205Z,86.47
2023-01-09T01:38:37.208Z,86.82
2023-01-09T01:41:06.937Z,87.11
2023-01-09T01:43:51.101Z,87.24
2023-01-09T01:46:18.921Z,87.68
2023-01-09T01:48:47.892Z,87.58
2023-01-09T01:51:16.957Z,87.56
2023-01-09T01:53:50.719Z,87.54
2023-01-09T01:56:21.391Z,87.75
2023-01-09T01:58:53.136Z,87.90
2023-01-09T02:01:23.343Z,87.67
2023-01-09T02:03:53.742Z,87.59
2023-01-09T02:06:21.604Z,87.35
2023-01-09T02:08:51.511Z,86.71
2023-01-09T02:11:21.784Z,86.82
2023-01-09T02:13:50.534Z,86.33
2023-01-09T02:16:37.946Z,86.12
2023-01-09T02:19:15.812Z,86.11
2023-01-09T02:22:01.365Z,85.67
2023-01-09T02:24:58.489Z,85.23
2023-01-09T02:27:54.384Z,85.24
2023-01-09T02:30:45.549Z,84.58
2023-01-09T02:33:25.788Z,84.34
2023-01-09T02:36:09.602Z,84.68
2023-01-09T02:38:49.210Z,84.48
2023-01-09T02:41:22.437Z,84.07
2023-01-09T02:44:18.101Z,84.13
2023-01-09T02:46:47.293Z,84.15
2023-01-09T02:49:17.726Z,84.53
2023-01-09T02:51:52.597Z,84.34
2023-01-09T02:54:32.878Z,84.73
2023-01-09T02:57:18.760Z,85.09
2023-01-09T03:00:02.792Z,85.09
2023-01-09T03:02:46.648Z,85.07
2023-01-09T03:05:22.527Z,85.46
2023-01-09T03:07:57.955Z,86.12
2023-01-09T03:10:31.577Z,86.00
2023-01-09T03:13:03.024Z,85.68
2023-01-09T03:15:34.511Z,85.49
2023-01-09T03:18:06.786Z,86.27
2023-01-09T03:20:35.105Z,85.89
2023-01-09T03:23:05.874Z,86.29
2023-01-09T03:25:34.021Z,86.14
2023-01-09T03:28:03.959Z,86.12
2023-01-09T03:30:33.281Z,85.59
2023-01-09T03:33:01.731Z,85.53
2023-01-09T03:35:31.517Z,86.66
2023-01-09T03:37:59.986Z,86.54
2023-01-09T03:40:27.924Z,86.64
2023-01-09T03:42:55.575Z,86.58
2023-01-09T03:45:23.766Z,86.41
2023-01-09T03:47:53.053Z,87.34
2023-01-09T03:50:21.463Z,87.30
2023-01-09T03:52:50.540Z,86.81
2023-01-09T03:55:18.561Z,86.39
2023-01-09T03:57:46.287Z,86.63
2023-01-09T04:00:15.129Z,86.30
2023-01-09T04:02:43.159Z,85.77
2023-01-09T04:05:11.092Z,85.39
2023-01-09T04:07:38.957Z,84.70
2023-01-09T04:10:09.867Z,84.62
2023-01-09T04:12:37.573Z,85.57
2023-01-09T04:15:06.022Z,84.81
2023-01-09T04:17:33.711Z,87.00
2023-01-09T04:20:02.121Z,86.20
2023-01-09T04:22:31.317Z,86.92
2023-01-09T04:24:59.271Z,85.60
2023-01-09T04:27:28.339Z,86.37
2023-01-09T04:29:56.368Z,87.65
2023-01-09T04:32:24.175Z,86.96
2023-01-09T04:34:52.493Z,89.00
2023-01-09T04:37:20.343Z,87.97
2023-01-09T04:39:48.735Z,87.97
2023-01-09T04:42:16.679Z,87.92
2023-01-09T04:44:46.193Z,87.10
2023-01-09T04:47:14.452Z,86.87
2023-01-09T04:49:42.790Z,86.21
2023-01-09T04:52:10.449Z,86.99
2023-01-09T04:54:39.723Z,88.13
2023-01-09T04:57:07.671Z,89.13
2023-01-09T04:59:35.718Z,89.24
2023-01-09T05:02:06.003Z,89.69
2023-01-09T05:04:34.526Z,90.27
2023-01-09T05:07:02.188Z,88.45
2023-01-09T05:09:30.419Z,88.31
2023-01-09T05:12:00.536Z,89.17
2023-01-09T05:14:29.367Z,87.63
2023-01-09T05:16:57.546Z,86.48
2023-01-09T05:19:26.829Z,86.93
2023-01-09T05:21:55.584Z,85.98
2023-01-09T05:24:23.234Z,84.62
2023-01-09T05:26:51.549Z,84.52
2023-01-09T05:29:19.231Z,82.30
2023-01-09T05:31:48.016Z,83.07
2023-01-09T05:34:15.726Z,81.67
2023-01-09T05:36:45.531Z,80.70
2023-01-09T05:39:13.457Z,79.71
2023-01-09T05:41:42.360Z,79.61
2023-01-09T05:44:10.018Z,80.26
2023-01-09T05:46:37.712Z,80.18
2023-01-09T05:49:05.457Z,81.11
2023-01-09T05:51:33.171Z,80.66
2023-01-09T05:54:02.869Z,81.77
2023-01-09T05:56:30.810Z,81.72
2023-01-09T05:58:58.510Z,82.10
2023-01-09T06:01:26.659Z,82.87
2023-01-09T06:03:54.407Z,83.34
2023-01-09T06:06:24.260Z,83.65
2023-01-09T06:08:52.001Z,83.29
2023-01-09T06:11:21.155Z,83.49
2023-01-09T06:13:49.453Z,83.51
2023-01-09T06:16:17.634Z,84.45
2023-01-09T06:18:45.347Z,84.53
2023-01-09T06:21:13.147Z,84.05
2023-01-09T06:23:40.836Z,84.25
2023-01-09T06:26:08.918Z,84.76
2023-01-09T06:28:37.902Z,84.29
2023-01-09T06:31:06.051Z,84.65
2023-01-09T06:33:33.878Z,84.00
2023-01-09T06:36:01.807Z,84.40
2023-01-09T06:38:29.461Z,86.49
2023-01-09T06:40:57.199Z,87.17
2023-01-09T06:43:24.859Z,88.85
2023-01-09T06:45:54.487Z,91.69
2023-01-09T06:48:22.266Z,93.79
2023-01-09T06:50:49.892Z,93.95
2023-01-09T06:53:17.851Z,94.01
2023-01-09T06:55:45.676Z,94.60
2023-01-09T06:58:14.223Z,94.93
2023-01-09T07:00:41.985Z,94.32
2023-01-09T07:03:11.840Z,95.20
2023-01-09T07:05:41.400Z,95.90
2023-01-09T07:08:10.551Z,95.12
2023-01-09T07:10:38.228Z,95.33
2023-01-09T07:13:06.234Z,95.50
2023-01-09T07:15:33.888Z,95.17
2023-01-09T07:18:01.910Z,94.78
2023-01-09T07:20:30.959Z,94.54
2023-01-09T07:22:58.960Z,95.13
2023-01-09T07:25:26.920Z,95.63
2023-01-09T07:27:54.576Z,95.98
2023-01-09T07:30:22.233Z,95.43
2023-01-09T07:32:50.260Z,95.59
2023-01-09T07:35:18.131Z,94.86
2023-01-09T07:37:47.771Z,94.94
2023-01-09T07:40:15.531Z,95.49
2023-01-09T07:42:43.275Z,96.04
2023-01-09T07:45:11.966Z,96.31
2023-01-09T07:47:40.669Z,95.26
2023-01-09T07:50:10.013Z,94.11
2023-01-09T07:52:38.694Z,93.05
2023-01-09T07:55:09.736Z,91.64
2023-01-09T07:57:37.716Z,91.20
2023-01-09T08:00:06.951Z,90.96
2023-01-09T08:02:40.648Z,90.56
2023-01-09T08:05:13.631Z,89.80
2023-01-09T08:07:42.073Z,89.30
2023-01-09T08:10:11.973Z,89.72
2023-01-09T08:12:44.505Z,88.78
2023-01-09T08:15:12.813Z,88.90
2023-01-09T08:17:43.075Z,88.19
2023-01-09T08:20:12.174Z,88.30
2023-01-09T08:22:40.505Z,88.11
2023-01-09T08:25:11.954Z,88.03
2023-01-09T08:27:41.969Z,87.86
2023-01-09T08:30:10.863Z,86.72
2023-01-09T08:32:38.611Z,85.53
2023-01-09T08:35:07.474Z,85.24
2023-01-09T08:37:35.519Z,84.44
2023-01-09T08:40:03.470Z,84.20
2023-01-09T08:42:48.707Z,83.69
2023-01-09T08:45:35.140Z,83.75
2023-01-09T08:48:02.816Z,82.57
2023-01-09T08:50:30.480Z,81.71
2023-01-09T08:52:58.450Z,82.62
2023-01-09T08:55:26.431Z,82.46
2023-01-09T08:57:55.664Z,80.60
2023-01-09T09:00:25.968Z,80.37
2023-01-09T09:02:55.065Z,80.21
2023-01-09T09:05:24.401Z,79.84
2023-01-09T09:07:53.915Z,79.60
2023-01-09T09:10:23.451Z,79.30
2023-01-09T09:12:52.499Z,79.67
2023-01-09T09:15:24.308Z,81.07
2023-01-09T09:17:55.195Z,79.41
2023-01-09T09:20:23.383Z,81.40
2023-01-09T09:22:51.461Z,80.35
2023-01-09T09:25:20.173Z,79.63
2023-01-09T09:27:48.372Z,80.09
2023-01-09T09:30:19.030Z,79.69
2023-01-09T09:32:47.473Z,78.97
2023-01-09T09:35:19.142Z,79.68
2023-01-09T09:37:54.313Z,80.36
2023-01-09T09:40:44.487Z,80.01
2023-01-09T09:43:58.330Z,79.65
2023-01-09T09:46:38.738Z,79.41
2023-01-09T09:49:14.261Z,79.00
2023-01-09T09:51:56.949Z,79.61
2023-01-09T09:54:28.471Z,78.98
2023-01-09T09:56:59.055Z,79.41
2023-01-09T09:59:30.977Z,80.13
2023-01-09T10:02:01.479Z,79.29
2023-01-09T10:04:33.452Z,78.10
2023-01-09T10:07:06.116Z,77.98
2023-01-09T10:09:46.874Z,78.22
2023-01-09T10:12:27.097Z,77.60
2023-01-09T10:14:55.999Z,77.64
2023-01-09T10:17:44.482Z,77.44
2023-01-09T10:20:38.553Z,76.91
2023-01-09T10:23:21.360Z,76.71
2023-01-09T10:25:57.331Z,76.05
2023-01-09T10:28:49.786Z,75.79
2023-01-09T10:31:23.309Z,75.96
2023-01-09T10:33:59.169Z,74.62
2023-01-09T10:37:05.596Z,74.00
2023-01-09T10:39:40.985Z,73.85
2023-01-09T10:42:21.494Z,73.27
2023-01-09T10:44:55.256Z,74.02
2023-01-09T10:47:27.026Z,74.63
2023-01-09T10:49:56.863Z,73.18
2023-01-09T10:52:31.046Z,74.04
2023-01-09T10:55:05.000Z,73.96
2023-01-09T10:57:42.401Z,73.11
2023-01-09T11:00:18.115Z,73.52
2023-01-09T11:05:36.757Z,73.19
2023-01-09T11:08:12.874Z,72.08
2023-01-09T11:10:50.567Z,72.16
2023-01-09T11:13:22.501Z,71.25
2023-01-09T11:16:05.788Z,71.72
2023-01-09T11:18:34.783Z,72.00
2023-01-09T11:21:29.213Z,71.58
2023-01-09T11:23:58.792Z,72.10
2023-01-09T11:26:29.505Z,71.19
2023-01-09T11:29:08.922Z,70.66
2023-01-09T11:31:36.830Z,70.14
2023-01-09T11:34:05.380Z,68.06
2023-01-09T11:36:33.387Z,68.55
2023-01-09T11:39:02.694Z,67.46
2023-01-09T11:41:34.856Z,68.68
2023-01-09T11:44:05.233Z,69.35
2023-01-09T11:46:38.452Z,68.90
2023-01-09T11:49:22.603Z,68.64
2023-01-09T11:52:14.591Z,69.35
2023-01-09T11:54:46.343Z,69.17
2023-01-09T11:57:15.448Z,69.37
2023-01-09T11:59:43.494Z,69.35
2023-01-09T12:02:39.563Z,70.38
2023-01-09T12:05:17.572Z,70.19
2023-01-09T12:08:02.983Z,69.65
2023-01-09T12:10:45.959Z,70.03
2023-01-09T12:13:30.733Z,68.88
2023-01-09T12:16:06.481Z,68.47
2023-01-09T12:18:51.043Z,67.65
2023-01-09T12:21:32.188Z,68.52
2023-01-09T12:24:45.193Z,68.38
2023-01-09T12:27:25.146Z,68.08
2023-01-09T12:30:19.825Z,68.83
2023-01-09T12:33:01.626Z,69.40
2023-01-09T12:35:36.904Z,68.40
2023-01-09T12:38:21.723Z,68.66
2023-01-09T12:41:24.940Z,69.39
2023-01-09T12:44:27.361Z,67.84
2023-01-09T12:47:15.787Z,67.49
2023-01-09T12:49:53.168Z,68.02
2023-01-09T12:52:26.285Z,69.90
2023-01-09T12:54:58.264Z,68.31
2023-01-09T12:57:31.563Z,67.28
2023-01-09T13:00:03.826Z,68.20
2023-01-09T13:02:37.488Z,68.40
2023-01-09T13:05:11.832Z,67.00
2023-01-09T13:07:43.336Z,68.47
2023-01-09T13:10:23.433Z,66.98
2023-01-09T13:12:52.481Z,68.71
2023-01-09T13:15:28.772Z,67.61
2023-01-09T13:18:05.111Z,66.55
2023-01-09T13:20:39.007Z,66.85
2023-01-09T13:23:07.918Z,68.37
2023-01-09T13:25:43.343Z,67.31
2023-01-09T13:28:18.754Z,67.56
2023-01-09T13:31:20.796Z,67.55
2023-01-09T13:33:52.947Z,66.49
2023-01-09T13:36:27.573Z,66.24
2023-01-09T13:38:57.517Z,65.67
2023-01-09T13:41:45.860Z,67.12
2023-01-09T13:44:28.588Z,66.66
2023-01-09T13:46:58.955Z,67.01
2023-01-09T13:50:15.119Z,66.08
2023-01-09T13:52:45.176Z,66.47
2023-01-09T13:55:36.259Z,66.72
2023-01-09T13:58:25.251Z,68.06
2023-01-09T14:00:59.053Z,67.28
2023-01-09T14:03:32.629Z,66.91
2023-01-09T14:06:12.806Z,67.58
2023-01-09T14:08:42.937Z,71.41
2023-01-09T14:11:19.729Z,73.12
2023-01-09T14:13:53.085Z,73.78
2023-01-09T14:16:24.874Z,74.21
2023-01-09T14:18:54.571Z,74.96
2023-01-09T14:21:22.756Z,76.13
2023-01-09T14:24:01.273Z,73.07
2023-01-09T14:26:45.280Z,72.09
2023-01-09T14:29:43.535Z,71.56
2023-01-09T14:32:46.342Z,72.24
2023-01-09T14:35:21.009Z,71.31
2023-01-09T14:38:00.679Z,71.50
2023-01-09T14:40:31.753Z,71.17
2023-01-09T14:43:09.505Z,72.18
2023-01-09T14:45:40.345Z,71.91
2023-01-09T14:48:13.059Z,73.40
2023-01-09T14:50:45.913Z,72.57
2023-01-09T14:53:18.094Z,73.50
2023-01-09T14:55:52.588Z,73.99
2023-01-09T14:58:24.738Z,74.62
2023-01-09T15:00:58.227Z,74.42
2023-01-09T15:03:29.251Z,74.44
2023-01-09T15:05:58.331Z,74.00
2023-01-09T15:08:28.731Z,74.13
2023-01-09T15:11:00.227Z,74.88
2023-01-09T15:13:32.389Z,74.47
2023-01-09T15:16:01.824Z,73.63
2023-01-09T15:18:33.179Z,74.85
2023-01-09T15:21:04.131Z,75.54
2023-01-09T15:23:32.416Z,75.70
2023-01-09T15:26:23.947Z,76.58
2023-01-09T15:28:53.127Z,76.02
2023-01-09T15:31:24.949Z,75.49
2023-01-09T15:33:54.101Z,76.75
2023-01-09T15:36:25.966Z,76.36
2023-01-09T15:38:55.066Z,75.85
2023-01-09T15:41:45.761Z,75.73
2023-01-09T15:44:17.342Z,75.99
2023-01-09T15:46:50.293Z,76.51
2023-01-09T15:49:19.017Z,75.59
2023-01-09T15:51:48.371Z,76.14
2023-01-09T15:54:18.050Z,76.02
2023-01-09T15:56:48.068Z,77.36
2023-01-09T15:59:27.134Z,77.49
2023-01-09T16:02:15.888Z,76.55
2023-01-09T16:04:43.698Z,76.59
2023-01-09T16:07:16.059Z,77.67
2023-01-09T16:09:47.470Z,77.28
2023-01-09T16:12:21.234Z,76.79
2023-01-09T16:14:52.574Z,76.46
2023-01-09T16:17:23.864Z,77.57
2023-01-09T16:19:53.792Z,77.50
2023-01-09T16:22:24.435Z,78.32
2023-01-09T16:24:54.417Z,78.35
2023-01-09T16:27:26.610Z,78.80
2023-01-09T16:29:57.950Z,78.33
2023-01-09T16:32:29.693Z,77.76
2023-01-09T16:34:59.960Z,77.76
2023-01-09T16:37:29.009Z,77.56
2023-01-09T16:40:32.029Z,78.62
2023-01-09T16:43:01.370Z,78.36
2023-01-09T16:45:31.988Z,78.39
2023-01-09T16:48:00.529Z,77.78
2023-01-09T16:50:28.383Z,78.72
2023-01-09T16:52:57.224Z,77.68
2023-01-09T16:55:24.869Z,78.14
2023-01-09T16:57:52.600Z,77.45
2023-01-09T17:00:22.550Z,78.08
2023-01-09T17:02:50.574Z,78.25
2023-01-09T17:05:18.220Z,77.55
2023-01-09T17:07:46.736Z,77.85
2023-01-09T17:10:21.203Z,77.84
2023-01-09T17:12:49.724Z,77.57
2023-01-09T17:15:17.864Z,77.95
2023-01-09T17:17:48.034Z,77.23
2023-01-09T17:20:18.013Z,77.69
2023-01-09T17:22:46.488Z,77.59
2023-01-09T17:25:33.462Z,77.30
2023-01-09T17:28:19.552Z,77.13
2023-01-09T17:30:47.360Z,77.79
2023-01-09T17:33:19.639Z,77.64
2023-01-09T17:35:47.431Z,78.41
2023-01-09T17:38:16.315Z,78.64
2023-01-09T17:40:45.116Z,78.45
2023-01-09T17:43:13.282Z,79.18
2023-01-09T17:45:42.492Z,79.19
2023-01-09T17:48:20.869Z,79.20
2023-01-09T17:50:49.921Z,78.95
2023-01-09T17:53:20.936Z,78.77
2023-01-09T17:55:48.986Z,79.85
2023-01-09T17:58:25.867Z,79.60
2023-01-09T18:00:53.828Z,80.82
2023-01-09T18:03:24.351Z,80.55
2023-01-09T18:05:52.360Z,80.12
2023-01-09T18:08:20.903Z,80.08
2023-01-09T18:10:49.108Z,79.95
2023-01-09T18:13:18.028Z,80.26
2023-01-09T18:15:46.441Z,80.70
2023-01-09T18:18:16.946Z,81.34
2023-01-09T18:20:46.474Z,81.84
2023-01-09T18:23:16.734Z,81.54
2023-01-09T18:25:44.607Z,82.64
2023-01-09T18:28:15.456Z,81.74
2023-01-09T18:30:45.105Z,81.51
2023-01-09T18:33:14.059Z,82.46
2023-01-09T18:35:41.964Z,82.31
2023-01-09T18:38:12.206Z,82.37
2023-01-09T18:40:41.579Z,81.95
2023-01-09T18:43:11.607Z,82.05
2023-01-09T18:45:39.832Z,81.65
2023-01-09T18:48:08.441Z,81.61
2023-01-09T18:50:36.071Z,82.20
2023-01-09T18:53:04.085Z,81.63
2023-01-09T18:55:33.499Z,82.00
2023-01-09T18:58:01.290Z,82.61
2023-01-09T19:00:29.210Z,82.68
2023-01-09T19:02:56.954Z,82.71
2023-01-09T19:05:25.689Z,83.02
2023-01-09T19:07:54.022Z,82.24
2023-01-09T19:10:22.063Z,82.65
2023-01-09T19:12:51.038Z,82.20
2023-01-09T19:15:19.064Z,82.87
2023-01-09T19:17:46.904Z,83.26
2023-01-09T19:20:14.889Z,83.58
2023-01-09T19:22:42.561Z,82.97
2023-01-09T19:25:12.412Z,82.97
2023-01-09T19:27:40.089Z,82.22
2023-01-09T19:30:11.272Z,83.30
2023-01-09T19:32:40.552Z,82.69
2023-01-09T19:35:08.940Z,82.64
2023-01-09T19:37:37.233Z,82.49
2023-01-09T19:40:05.881Z,81.96
2023-01-09T19:42:33.541Z,81.69
2023-01-09T19:45:01.200Z,82.27
2023-01-09T19:47:35.425Z,81.81
2023-01-09T19:50:04.982Z,82.78
2023-01-09T19:52:33.088Z,82.83
2023-01-09T19:55:00.927Z,82.44
2023-01-09T19:57:28.576Z,82.16
2023-01-09T19:59:56.605Z,82.05
2023-01-09T20:02:24.449Z,81.53
2023-01-09T20:04:53.461Z,81.79
2023-01-09T20:07:21.256Z,81.36
2023-01-09T20:09:49.836Z,81.26
2023-01-09T20:12:17.469Z,81.33
2023-01-09T20:14:45.260Z,81.30
2023-01-09T20:17:12.940Z,81.68
2023-01-09T20:19:40.594Z,82.02
2023-01-09T20:22:09.888Z,82.17
2023-01-09T20:24:39.008Z,82.05
2023-01-09T20:27:06.961Z,82.04
2023-01-09T20:29:34.929Z,81.88
2023-01-09T20:32:05.514Z,81.54
2023-01-09T20:34:33.736Z,81.76
2023-01-09T20:37:01.537Z,82.74
2023-01-09T20:39:31.008Z,82.93
2023-01-09T20:41:58.690Z,83.58
2023-01-09T20:44:26.392Z,84.18
2023-01-09T20:46:54.017Z,85.11
2023-01-09T20:49:22.383Z,85.76
2023-01-09T20:51:52.259Z,85.84
2023-01-09T20:54:22.224Z,86.42
2023-01-09T20:56:53.627Z,87.44
2023-01-09T20:59:22.249Z,87.23
2023-01-09T21:01:50.392Z,87.75
2023-01-09T21:04:19.511Z,86.82
2023-01-09T21:06:49.755Z,86.26
2023-01-09T21:09:17.786Z,87.31
2023-01-09T21:11:45.471Z,87.80
2023-01-09T21:14:14.980Z,87.46
2023-01-09T21:16:45.460Z,88.55
2023-01-09T21:19:19.539Z,88.18
2023-01-09T21:21:47.350Z,88.72
2023-01-09T21:24:14.993Z,88.41
2023-01-09T21:26:43.374Z,88.15
2023-01-09T21:29:15.482Z,88.76
2023-01-09T21:31:44.361Z,88.46
2023-01-09T21:34:14.563Z,88.84
2023-01-09T21:36:45.307Z,88.67
2023-01-09T21:39:13.004Z,88.77
2023-01-09T21:41:58.575Z,89.02
2023-01-09T21:44:45.421Z,89.57
2023-01-09T21:47:13.081Z,89.39
2023-01-09T21:49:41.743Z,89.20
2023-01-09T21:52:10.825Z,89.86
2023-01-09T21:54:38.587Z,89.68
2023-01-09T21:57:06.537Z,89.59
2023-01-09T21:59:35.565Z,89.59
2023-01-09T22:02:03.277Z,89.42
2023-01-09T22:04:32.329Z,89.06
2023-01-09T22:07:00.293Z,88.77
2023-01-09T22:09:28.287Z,89.24
2023-01-09T22:11:57.828Z,90.06
2023-01-09T22:14:25.519Z,89.76
2023-01-09T22:16:55.527Z,89.02
2023-01-09T22:19:23.191Z,88.68
2023-01-09T22:21:51.219Z,88.92
2023-01-09T22:24:21.609Z,88.70
2023-01-09T22:26:50.113Z,88.94
2023-01-09T22:29:18.137Z,89.15
2023-01-09T22:31:46.038Z,88.32
2023-01-09T22:34:18.304Z,88.13
2023-01-09T22:36:47.853Z,87.87
2023-01-09T22:39:19.348Z,89.45
2023-01-09T22:41:51.905Z,89.25
2023-01-09T22:44:19.580Z,88.43
2023-01-09T22:46:47.942Z,88.52
2023-01-09T22:49:16.963Z,89.48
2023-01-09T22:51:45.104Z,88.61
2023-01-09T22:54:12.741Z,86.84
2023-01-09T22:56:40.752Z,85.68
2023-01-09T22:59:08.630Z,86.16
2023-01-09T23:01:36.890Z,87.21
2023-01-09T23:04:04.889Z,86.99
2023-01-09T23:06:34.274Z,86.67
2023-01-09T23:09:01.906Z,86.34
2023-01-09T23:11:49.828Z,86.04
2023-01-09T23:14:17.688Z,85.76
2023-01-09T23:16:45.783Z,85.35
2023-01-09T23:19:15.565Z,85.77
2023-01-09T23:21:46.463Z,85.44
2023-01-09T23:24:15.412Z,86.01
2023-01-09T23:26:43.598Z,86.46
2023-01-09T23:29:12.376Z,86.39
2023-01-09T23:31:40.166Z,85.98
2023-01-09T23:34:08.267Z,85.39
2023-01-09T23:36:36.144Z,84.66
2023-01-09T23:39:08.857Z,84.51
2023-01-09T23:41:54.679Z,84.75
2023-01-09T23:44:22.574Z,84.43
2023-01-09T23:46:50.283Z,84.62
2023-01-09T23:49:18.248Z,84.48
2023-01-09T23:51:46.740Z,84.27
2023-01-09T23:54:16.259Z,84.93
2023-01-09T23:56:44.215Z,84.99
2023-01-09T23:59:13.797Z,83.89
